sensor_id;sensor_type;location;lat;lon;timestamp;P1;durP1;ratioP1;P2;durP2;ratioP2
74495;SDS011;62979;55.720;37.606;2023-09-12T00:00:45;17.45;;;11.30;;
74495;SDS011;62979;55.720;37.606;2023-09-12T00:03:13;14.93;;;10.50;;
74495;SDS011;62979;55.720;37.606;2023-09-12T00:05:40;18.20;;;10.20;;
74495;SDS011;62979;55.720;37.606;2023-09-12T00:08:07;17.45;;;11.35;;
74495;SDS011;62979;55.720;37.606;2023-09-12T00:10:34;18.02;;;10.45;;
74495;SDS011;62979;55.720;37.606;2023-09-12T00:13:01;19.95;;;12.05;;
74495;SDS011;62979;55.720;37.606;2023-09-12T00:15:28;19.23;;;10.45;;
74495;SDS011;62979;55.720;37.606;2023-09-12T00:17:55;19.30;;;11.57;;
74495;SDS011;62979;55.720;37.606;2023-09-12T00:20:23;19.80;;;11.02;;
74495;SDS011;62979;55.720;37.606;2023-09-12T00:22:50;17.27;;;11.18;;
74495;SDS011;62979;55.720;37.606;2023-09-12T00:25:18;17.42;;;11.13;;
74495;SDS011;62979;55.720;37.606;2023-09-12T00:27:45;18.60;;;11.00;;
74495;SDS011;62979;55.720;37.606;2023-09-12T00:30:13;21.23;;;12.25;;
74495;SDS011;62979;55.720;37.606;2023-09-12T00:32:41;21.25;;;11.45;;
74495;SDS011;62979;55.720;37.606;2023-09-12T00:35:08;21.58;;;11.90;;
74495;SDS011;62979;55.720;37.606;2023-09-12T00:37:36;20.08;;;11.27;;
74495;SDS011;62979;55.720;37.606;2023-09-12T00:40:03;18.35;;;11.32;;
74495;SDS011;62979;55.720;37.606;2023-09-12T00:42:32;19.98;;;10.85;;
74495;SDS011;62979;55.720;37.606;2023-09-12T00:44:59;17.42;;;10.90;;
74495;SDS011;62979;55.720;37.606;2023-09-12T00:47:25;22.48;;;12.20;;
74495;SDS011;62979;55.720;37.606;2023-09-12T00:49:56;18.55;;;11.63;;
74495;SDS011;62979;55.720;37.606;2023-09-12T00:52:25;23.13;;;12.85;;
74495;SDS011;62979;55.720;37.606;2023-09-12T00:54:56;20.90;;;12.00;;
74495;SDS011;62979;55.720;37.606;2023-09-12T00:57:24;21.83;;;11.40;;
74495;SDS011;62979;55.720;37.606;2023-09-12T00:59:52;22.00;;;11.73;;
74495;SDS011;62979;55.720;37.606;2023-09-12T01:02:20;19.70;;;11.57;;
74495;SDS011;62979;55.720;37.606;2023-09-12T01:04:47;20.52;;;12.05;;
74495;SDS011;62979;55.720;37.606;2023-09-12T01:09:42;19.17;;;12.13;;
74495;SDS011;62979;55.720;37.606;2023-09-12T01:12:10;21.27;;;12.35;;
74495;SDS011;62979;55.720;37.606;2023-09-12T01:14:39;19.95;;;11.10;;
74495;SDS011;62979;55.720;37.606;2023-09-12T01:17:06;25.58;;;12.05;;
74495;SDS011;62979;55.720;37.606;2023-09-12T01:19:33;28.80;;;12.50;;
74495;SDS011;62979;55.720;37.606;2023-09-12T01:22:11;20.17;;;12.48;;
74495;SDS011;62979;55.720;37.606;2023-09-12T01:25:39;22.27;;;12.30;;
74495;SDS011;62979;55.720;37.606;2023-09-12T01:28:29;25.40;;;11.52;;
74495;SDS011;62979;55.720;37.606;2023-09-12T01:31:00;20.13;;;11.52;;
74495;SDS011;62979;55.720;37.606;2023-09-12T01:33:29;20.63;;;11.75;;
74495;SDS011;62979;55.720;37.606;2023-09-12T01:35:56;21.92;;;10.90;;
74495;SDS011;62979;55.720;37.606;2023-09-12T01:38:23;21.30;;;12.02;;
74495;SDS011;62979;55.720;37.606;2023-09-12T01:40:51;22.38;;;11.73;;
74495;SDS011;62979;55.720;37.606;2023-09-12T01:43:21;24.13;;;12.55;;
74495;SDS011;62979;55.720;37.606;2023-09-12T01:45:54;21.63;;;11.25;;
74495;SDS011;62979;55.720;37.606;2023-09-12T01:48:25;21.55;;;11.52;;
74495;SDS011;62979;55.720;37.606;2023-09-12T01:50:59;20.83;;;12.20;;
74495;SDS011;62979;55.720;37.606;2023-09-12T01:53:27;17.88;;;11.52;;
74495;SDS011;62979;55.720;37.606;2023-09-12T01:55:55;20.95;;;10.88;;
74495;SDS011;62979;55.720;37.606;2023-09-12T01:58:24;16.92;;;11.63;;
74495;SDS011;62979;55.720;37.606;2023-09-12T02:00:53;19.02;;;11.82;;
74495;SDS011;62979;55.720;37.606;2023-09-12T02:03:21;23.83;;;12.15;;
74495;SDS011;62979;55.720;37.606;2023-09-12T02:05:48;21.48;;;12.23;;
74495;SDS011;62979;55.720;37.606;2023-09-12T02:08:15;19.35;;;11.93;;
74495;SDS011;62979;55.720;37.606;2023-09-12T02:10:42;18.77;;;10.95;;
74495;SDS011;62979;55.720;37.606;2023-09-12T02:13:08;25.80;;;11.80;;
74495;SDS011;62979;55.720;37.606;2023-09-12T02:15:35;23.20;;;12.23;;
74495;SDS011;62979;55.720;37.606;2023-09-12T02:18:04;20.70;;;11.68;;
74495;SDS011;62979;55.720;37.606;2023-09-12T02:20:31;22.77;;;11.40;;
74495;SDS011;62979;55.720;37.606;2023-09-12T02:23:04;22.55;;;12.43;;
74495;SDS011;62979;55.720;37.606;2023-09-12T02:25:30;18.88;;;12.25;;
74495;SDS011;62979;55.720;37.606;2023-09-12T02:27:57;22.65;;;12.05;;
74495;SDS011;62979;55.720;37.606;2023-09-12T02:30:24;17.65;;;11.38;;
74495;SDS011;62979;55.720;37.606;2023-09-12T02:32:51;27.00;;;13.13;;
74495;SDS011;62979;55.720;37.606;2023-09-12T02:35:19;21.08;;;12.18;;
74495;SDS011;62979;55.720;37.606;2023-09-12T02:37:46;19.52;;;11.75;;
74495;SDS011;62979;55.720;37.606;2023-09-12T02:40:13;18.75;;;12.07;;
74495;SDS011;62979;55.720;37.606;2023-09-12T02:42:40;19.77;;;12.30;;
74495;SDS011;62979;55.720;37.606;2023-09-12T02:45:07;21.63;;;13.13;;
74495;SDS011;62979;55.720;37.606;2023-09-12T02:47:35;18.23;;;11.07;;
74495;SDS011;62979;55.720;37.606;2023-09-12T02:50:02;22.08;;;11.75;;
74495;SDS011;62979;55.720;37.606;2023-09-12T02:52:30;19.52;;;11.75;;
74495;SDS011;62979;55.720;37.606;2023-09-12T02:54:57;23.10;;;12.35;;
74495;SDS011;62979;55.720;37.606;2023-09-12T02:57:24;22.60;;;12.13;;
74495;SDS011;62979;55.720;37.606;2023-09-12T02:59:51;21.25;;;12.63;;
74495;SDS011;62979;55.720;37.606;2023-09-12T03:02:18;21.20;;;12.02;;
74495;SDS011;62979;55.720;37.606;2023-09-12T03:04:44;22.20;;;12.65;;
74495;SDS011;62979;55.720;37.606;2023-09-12T03:07:12;19.80;;;12.48;;
74495;SDS011;62979;55.720;37.606;2023-09-12T03:09:40;21.75;;;11.93;;
74495;SDS011;62979;55.720;37.606;2023-09-12T03:12:07;23.30;;;12.55;;
74495;SDS011;62979;55.720;37.606;2023-09-12T03:14:33;23.00;;;12.38;;
74495;SDS011;62979;55.720;37.606;2023-09-12T03:17:02;25.42;;;13.88;;
74495;SDS011;62979;55.720;37.606;2023-09-12T03:19:29;21.77;;;12.80;;
74495;SDS011;62979;55.720;37.606;2023-09-12T03:21:56;23.27;;;12.82;;
74495;SDS011;62979;55.720;37.606;2023-09-12T03:24:23;25.42;;;12.77;;
74495;SDS011;62979;55.720;37.606;2023-09-12T03:26:52;20.45;;;11.75;;
74495;SDS011;62979;55.720;37.606;2023-09-12T03:29:19;24.75;;;12.75;;
74495;SDS011;62979;55.720;37.606;2023-09-12T03:31:45;27.30;;;13.65;;
74495;SDS011;62979;55.720;37.606;2023-09-12T03:34:12;24.67;;;12.68;;
74495;SDS011;62979;55.720;37.606;2023-09-12T03:36:39;24.58;;;12.43;;
74495;SDS011;62979;55.720;37.606;2023-09-12T03:39:06;24.83;;;13.82;;
74495;SDS011;62979;55.720;37.606;2023-09-12T03:41:33;21.67;;;12.52;;
74495;SDS011;62979;55.720;37.606;2023-09-12T03:44:02;22.02;;;12.93;;
74495;SDS011;62979;55.720;37.606;2023-09-12T03:46:29;23.98;;;13.15;;
74495;SDS011;62979;55.720;37.606;2023-09-12T03:48:55;24.25;;;13.80;;
74495;SDS011;62979;55.720;37.606;2023-09-12T03:51:22;26.45;;;13.52;;
74495;SDS011;62979;55.720;37.606;2023-09-12T03:53:50;23.70;;;12.25;;
74495;SDS011;62979;55.720;37.606;2023-09-12T03:56:16;22.85;;;12.80;;
74495;SDS011;62979;55.720;37.606;2023-09-12T03:58:45;32.03;;;13.13;;
74495;SDS011;62979;55.720;37.606;2023-09-12T04:01:13;23.17;;;12.88;;
74495;SDS011;62979;55.720;37.606;2023-09-12T04:03:40;25.10;;;12.82;;
74495;SDS011;62979;55.720;37.606;2023-09-12T04:06:07;21.90;;;12.40;;
74495;SDS011;62979;55.720;37.606;2023-09-12T04:08:34;21.17;;;11.68;;
74495;SDS011;62979;55.720;37.606;2023-09-12T04:11:01;22.02;;;12.98;;
74495;SDS011;62979;55.720;37.606;2023-09-12T04:13:28;19.08;;;12.45;;
74495;SDS011;62979;55.720;37.606;2023-09-12T04:15:55;18.80;;;11.57;;
74495;SDS011;62979;55.720;37.606;2023-09-12T04:18:23;23.15;;;13.65;;
74495;SDS011;62979;55.720;37.606;2023-09-12T04:20:50;22.67;;;12.50;;
74495;SDS011;62979;55.720;37.606;2023-09-12T04:23:17;23.38;;;13.30;;
74495;SDS011;62979;55.720;37.606;2023-09-12T04:25:45;20.15;;;12.27;;
74495;SDS011;62979;55.720;37.606;2023-09-12T04:28:13;19.60;;;11.98;;
74495;SDS011;62979;55.720;37.606;2023-09-12T04:30:39;26.98;;;13.00;;
74495;SDS011;62979;55.720;37.606;2023-09-12T04:33:06;20.83;;;11.35;;
74495;SDS011;62979;55.720;37.606;2023-09-12T04:35:35;19.52;;;12.25;;
74495;SDS011;62979;55.720;37.606;2023-09-12T04:38:02;23.80;;;12.52;;
74495;SDS011;62979;55.720;37.606;2023-09-12T04:40:29;19.83;;;12.15;;
74495;SDS011;62979;55.720;37.606;2023-09-12T04:42:56;22.10;;;12.15;;
74495;SDS011;62979;55.720;37.606;2023-09-12T04:45:23;20.85;;;11.70;;
74495;SDS011;62979;55.720;37.606;2023-09-12T04:47:50;29.20;;;14.68;;
74495;SDS011;62979;55.720;37.606;2023-09-12T04:50:17;26.20;;;14.85;;
74495;SDS011;62979;55.720;37.606;2023-09-12T04:52:45;22.42;;;12.63;;
74495;SDS011;62979;55.720;37.606;2023-09-12T04:55:12;19.77;;;10.95;;
74495;SDS011;62979;55.720;37.606;2023-09-12T04:57:38;23.65;;;12.45;;
74495;SDS011;62979;55.720;37.606;2023-09-12T05:00:06;22.25;;;13.05;;
74495;SDS011;62979;55.720;37.606;2023-09-12T05:02:35;20.98;;;13.10;;
74495;SDS011;62979;55.720;37.606;2023-09-12T05:05:02;21.90;;;12.13;;
74495;SDS011;62979;55.720;37.606;2023-09-12T05:07:30;21.70;;;12.15;;
74495;SDS011;62979;55.720;37.606;2023-09-12T05:09:59;24.00;;;12.38;;
74495;SDS011;62979;55.720;37.606;2023-09-12T05:12:25;23.80;;;13.80;;
74495;SDS011;62979;55.720;37.606;2023-09-12T05:14:52;25.65;;;14.02;;
74495;SDS011;62979;55.720;37.606;2023-09-12T05:17:19;26.17;;;14.30;;
74495;SDS011;62979;55.720;37.606;2023-09-12T05:19:46;23.67;;;14.00;;
74495;SDS011;62979;55.720;37.606;2023-09-12T05:22:13;25.33;;;14.00;;
74495;SDS011;62979;55.720;37.606;2023-09-12T05:24:40;23.25;;;13.10;;
74495;SDS011;62979;55.720;37.606;2023-09-12T05:27:08;24.73;;;15.52;;
74495;SDS011;62979;55.720;37.606;2023-09-12T05:29:35;27.48;;;13.30;;
74495;SDS011;62979;55.720;37.606;2023-09-12T05:32:02;28.88;;;14.75;;
74495;SDS011;62979;55.720;37.606;2023-09-12T05:34:31;36.08;;;18.83;;
74495;SDS011;62979;55.720;37.606;2023-09-12T05:36:57;30.17;;;15.27;;
74495;SDS011;62979;55.720;37.606;2023-09-12T05:39:24;29.00;;;15.25;;
74495;SDS011;62979;55.720;37.606;2023-09-12T05:41:51;25.13;;;14.95;;
74495;SDS011;62979;55.720;37.606;2023-09-12T05:44:19;28.33;;;13.73;;
74495;SDS011;62979;55.720;37.606;2023-09-12T05:46:46;24.77;;;14.27;;
74495;SDS011;62979;55.720;37.606;2023-09-12T05:49:15;24.15;;;14.32;;
74495;SDS011;62979;55.720;37.606;2023-09-12T05:54:09;22.98;;;14.43;;
74495;SDS011;62979;55.720;37.606;2023-09-12T05:56:38;23.20;;;13.93;;
74495;SDS011;62979;55.720;37.606;2023-09-12T05:59:05;33.55;;;14.75;;
74495;SDS011;62979;55.720;37.606;2023-09-12T06:01:34;25.52;;;14.52;;
74495;SDS011;62979;55.720;37.606;2023-09-12T06:04:00;26.80;;;14.30;;
74495;SDS011;62979;55.720;37.606;2023-09-12T06:06:27;28.05;;;14.65;;
74495;SDS011;62979;55.720;37.606;2023-09-12T06:08:54;31.55;;;14.82;;
74495;SDS011;62979;55.720;37.606;2023-09-12T06:11:23;24.05;;;13.63;;
74495;SDS011;62979;55.720;37.606;2023-09-12T06:13:50;27.60;;;14.38;;
74495;SDS011;62979;55.720;37.606;2023-09-12T06:16:17;22.88;;;13.40;;
74495;SDS011;62979;55.720;37.606;2023-09-12T06:18:45;23.45;;;14.35;;
74495;SDS011;62979;55.720;37.606;2023-09-12T06:21:13;29.02;;;13.50;;
74495;SDS011;62979;55.720;37.606;2023-09-12T06:23:40;23.85;;;14.10;;
74495;SDS011;62979;55.720;37.606;2023-09-12T06:26:07;27.60;;;13.93;;
74495;SDS011;62979;55.720;37.606;2023-09-12T06:28:34;28.35;;;16.05;;
74495;SDS011;62979;55.720;37.606;2023-09-12T06:31:00;25.30;;;14.25;;
74495;SDS011;62979;55.720;37.606;2023-09-12T06:33:27;29.02;;;13.85;;
74495;SDS011;62979;55.720;37.606;2023-09-12T06:35:56;26.42;;;13.93;;
74495;SDS011;62979;55.720;37.606;2023-09-12T06:38:22;25.13;;;14.82;;
74495;SDS011;62979;55.720;37.606;2023-09-12T06:40:49;22.17;;;14.32;;
74495;SDS011;62979;55.720;37.606;2023-09-12T06:43:16;34.80;;;16.67;;
74495;SDS011;62979;55.720;37.606;2023-09-12T06:45:44;24.70;;;13.90;;
74495;SDS011;62979;55.720;37.606;2023-09-12T06:50:38;29.23;;;14.20;;
74495;SDS011;62979;55.720;37.606;2023-09-12T06:53:06;24.33;;;12.48;;
74495;SDS011;62979;55.720;37.606;2023-09-12T06:55:35;30.90;;;15.65;;
74495;SDS011;62979;55.720;37.606;2023-09-12T06:58:03;29.98;;;14.45;;
74495;SDS011;62979;55.720;37.606;2023-09-12T07:00:30;30.38;;;16.95;;
74495;SDS011;62979;55.720;37.606;2023-09-12T07:02:58;30.52;;;15.07;;
74495;SDS011;62979;55.720;37.606;2023-09-12T07:05:25;32.10;;;15.02;;
74495;SDS011;62979;55.720;37.606;2023-09-12T07:07:52;28.30;;;14.57;;
74495;SDS011;62979;55.720;37.606;2023-09-12T07:10:20;28.73;;;15.02;;
74495;SDS011;62979;55.720;37.606;2023-09-12T07:12:48;27.45;;;14.52;;
74495;SDS011;62979;55.720;37.606;2023-09-12T07:15:15;30.45;;;14.45;;
74495;SDS011;62979;55.720;37.606;2023-09-12T07:17:42;32.15;;;14.25;;
74495;SDS011;62979;55.720;37.606;2023-09-12T07:20:09;32.88;;;15.25;;
74495;SDS011;62979;55.720;37.606;2023-09-12T07:22:38;28.58;;;14.27;;
74495;SDS011;62979;55.720;37.606;2023-09-12T07:25:06;27.20;;;13.80;;
74495;SDS011;62979;55.720;37.606;2023-09-12T07:27:37;23.35;;;13.55;;
74495;SDS011;62979;55.720;37.606;2023-09-12T07:30:05;29.55;;;14.57;;
74495;SDS011;62979;55.720;37.606;2023-09-12T07:32:33;29.40;;;14.20;;
74495;SDS011;62979;55.720;37.606;2023-09-12T07:35:00;26.90;;;15.73;;
74495;SDS011;62979;55.720;37.606;2023-09-12T07:37:28;25.27;;;13.93;;
74495;SDS011;62979;55.720;37.606;2023-09-12T07:39:55;28.00;;;14.02;;
74495;SDS011;62979;55.720;37.606;2023-09-12T07:42:22;32.40;;;14.40;;
74495;SDS011;62979;55.720;37.606;2023-09-12T07:44:51;20.60;;;12.82;;
74495;SDS011;62979;55.720;37.606;2023-09-12T07:47:18;27.52;;;15.48;;
74495;SDS011;62979;55.720;37.606;2023-09-12T07:49:45;25.90;;;14.77;;
74495;SDS011;62979;55.720;37.606;2023-09-12T07:54:45;23.88;;;12.52;;
74495;SDS011;62979;55.720;37.606;2023-09-12T07:57:12;23.00;;;13.63;;
74495;SDS011;62979;55.720;37.606;2023-09-12T07:59:39;23.58;;;13.27;;
74495;SDS011;62979;55.720;37.606;2023-09-12T08:02:07;22.10;;;12.70;;
74495;SDS011;62979;55.720;37.606;2023-09-12T08:04:37;23.35;;;13.48;;
74495;SDS011;62979;55.720;37.606;2023-09-12T08:07:04;24.67;;;13.02;;
74495;SDS011;62979;55.720;37.606;2023-09-12T08:12:17;23.10;;;12.57;;
74495;SDS011;62979;55.720;37.606;2023-09-12T08:14:46;20.85;;;13.00;;
74495;SDS011;62979;55.720;37.606;2023-09-12T08:17:14;20.45;;;12.27;;
74495;SDS011;62979;55.720;37.606;2023-09-12T08:19:42;22.55;;;12.60;;
74495;SDS011;62979;55.720;37.606;2023-09-12T08:22:09;22.55;;;12.23;;
74495;SDS011;62979;55.720;37.606;2023-09-12T08:24:37;24.65;;;13.25;;
74495;SDS011;62979;55.720;37.606;2023-09-12T08:27:04;22.30;;;12.98;;
74495;SDS011;62979;55.720;37.606;2023-09-12T08:29:33;21.10;;;12.38;;
74495;SDS011;62979;55.720;37.606;2023-09-12T08:32:00;20.45;;;11.77;;
74495;SDS011;62979;55.720;37.606;2023-09-12T08:36:56;20.20;;;10.68;;
74495;SDS011;62979;55.720;37.606;2023-09-12T08:39:23;12.60;;;8.85;;
74495;SDS011;62979;55.720;37.606;2023-09-12T08:41:52;16.65;;;8.68;;
74495;SDS011;62979;55.720;37.606;2023-09-12T08:44:20;20.10;;;9.70;;
74495;SDS011;62979;55.720;37.606;2023-09-12T08:49:14;12.63;;;8.93;;
74495;SDS011;62979;55.720;37.606;2023-09-12T08:51:43;17.60;;;9.40;;
74495;SDS011;62979;55.720;37.606;2023-09-12T08:54:10;13.48;;;9.40;;
74495;SDS011;62979;55.720;37.606;2023-09-12T08:56:39;19.67;;;11.23;;
74495;SDS011;62979;55.720;37.606;2023-09-12T08:59:10;16.27;;;9.90;;
74495;SDS011;62979;55.720;37.606;2023-09-12T09:01:37;17.25;;;10.88;;
74495;SDS011;62979;55.720;37.606;2023-09-12T09:04:05;19.15;;;10.82;;
74495;SDS011;62979;55.720;37.606;2023-09-12T09:06:33;15.32;;;9.40;;
74495;SDS011;62979;55.720;37.606;2023-09-12T09:09:04;12.45;;;8.93;;
74495;SDS011;62979;55.720;37.606;2023-09-12T09:11:33;14.40;;;9.48;;
74495;SDS011;62979;55.720;37.606;2023-09-12T09:14:01;13.57;;;9.40;;
74495;SDS011;62979;55.720;37.606;2023-09-12T09:16:29;12.95;;;8.52;;
74495;SDS011;62979;55.720;37.606;2023-09-12T09:18:57;13.15;;;9.00;;
74495;SDS011;62979;55.720;37.606;2023-09-12T09:21:27;12.73;;;8.32;;
74495;SDS011;62979;55.720;37.606;2023-09-12T09:23:57;10.30;;;6.97;;
74495;SDS011;62979;55.720;37.606;2023-09-12T09:26:30;13.00;;;7.28;;
74495;SDS011;62979;55.720;37.606;2023-09-12T09:29:09;13.75;;;7.60;;
74495;SDS011;62979;55.720;37.606;2023-09-12T09:31:39;11.63;;;7.85;;
74495;SDS011;62979;55.720;37.606;2023-09-12T09:34:11;12.25;;;7.18;;
74495;SDS011;62979;55.720;37.606;2023-09-12T09:36:42;9.68;;;6.70;;
74495;SDS011;62979;55.720;37.606;2023-09-12T09:39:10;11.13;;;7.70;;
74495;SDS011;62979;55.720;37.606;2023-09-12T09:41:40;11.18;;;6.85;;
74495;SDS011;62979;55.720;37.606;2023-09-12T09:44:08;9.73;;;6.75;;
74495;SDS011;62979;55.720;37.606;2023-09-12T09:49:03;9.63;;;7.20;;
74495;SDS011;62979;55.720;37.606;2023-09-12T09:51:32;11.02;;;6.80;;
74495;SDS011;62979;55.720;37.606;2023-09-12T09:54:07;10.73;;;7.78;;
74495;SDS011;62979;55.720;37.606;2023-09-12T09:56:37;11.80;;;8.85;;
74495;SDS011;62979;55.720;37.606;2023-09-12T09:59:14;11.10;;;7.90;;
74495;SDS011;62979;55.720;37.606;2023-09-12T10:01:42;11.10;;;7.38;;
74495;SDS011;62979;55.720;37.606;2023-09-12T10:04:11;8.15;;;6.63;;
74495;SDS011;62979;55.720;37.606;2023-09-12T10:06:38;8.57;;;7.18;;
74495;SDS011;62979;55.720;37.606;2023-09-12T10:09:10;14.45;;;8.15;;
74495;SDS011;62979;55.720;37.606;2023-09-12T10:11:40;9.77;;;8.68;;
74495;SDS011;62979;55.720;37.606;2023-09-12T10:14:10;10.23;;;7.53;;
74495;SDS011;62979;55.720;37.606;2023-09-12T10:16:43;10.20;;;8.73;;
74495;SDS011;62979;55.720;37.606;2023-09-12T10:19:13;11.55;;;8.02;;
74495;SDS011;62979;55.720;37.606;2023-09-12T10:21:46;11.43;;;8.13;;
74495;SDS011;62979;55.720;37.606;2023-09-12T10:24:16;9.48;;;6.65;;
74495;SDS011;62979;55.720;37.606;2023-09-12T10:26:46;11.55;;;7.93;;
74495;SDS011;62979;55.720;37.606;2023-09-12T10:29:17;10.13;;;7.47;;
74495;SDS011;62979;55.720;37.606;2023-09-12T10:31:44;9.20;;;7.93;;
74495;SDS011;62979;55.720;37.606;2023-09-12T10:34:14;11.18;;;8.00;;
74495;SDS011;62979;55.720;37.606;2023-09-12T10:36:43;10.82;;;6.78;;
74495;SDS011;62979;55.720;37.606;2023-09-12T10:39:13;11.32;;;6.63;;
74495;SDS011;62979;55.720;37.606;2023-09-12T10:41:41;6.75;;;6.15;;
74495;SDS011;62979;55.720;37.606;2023-09-12T10:46:38;7.85;;;6.28;;
74495;SDS011;62979;55.720;37.606;2023-09-12T10:49:07;12.63;;;6.97;;
74495;SDS011;62979;55.720;37.606;2023-09-12T10:51:37;8.15;;;6.32;;
74495;SDS011;62979;55.720;37.606;2023-09-12T10:54:05;8.15;;;6.35;;
74495;SDS011;62979;55.720;37.606;2023-09-12T10:56:33;6.88;;;5.47;;
74495;SDS011;62979;55.720;37.606;2023-09-12T10:59:11;9.82;;;7.25;;
74495;SDS011;62979;55.720;37.606;2023-09-12T11:04:29;8.18;;;7.40;;
74495;SDS011;62979;55.720;37.606;2023-09-12T11:06:59;7.55;;;6.85;;
74495;SDS011;62979;55.720;37.606;2023-09-12T11:09:27;7.07;;;6.38;;
74495;SDS011;62979;55.720;37.606;2023-09-12T11:11:55;6.25;;;5.65;;
74495;SDS011;62979;55.720;37.606;2023-09-12T11:14:28;7.75;;;6.53;;
74495;SDS011;62979;55.720;37.606;2023-09-12T11:17:21;8.82;;;6.15;;
74495;SDS011;62979;55.720;37.606;2023-09-12T11:19:50;8.95;;;6.53;;
74495;SDS011;62979;55.720;37.606;2023-09-12T11:22:22;7.65;;;5.85;;
74495;SDS011;62979;55.720;37.606;2023-09-12T11:24:53;7.85;;;5.95;;
74495;SDS011;62979;55.720;37.606;2023-09-12T11:27:22;8.18;;;6.25;;
74495;SDS011;62979;55.720;37.606;2023-09-12T11:29:51;9.55;;;5.72;;
74495;SDS011;62979;55.720;37.606;2023-09-12T11:32:27;7.07;;;6.38;;
74495;SDS011;62979;55.720;37.606;2023-09-12T11:37:26;8.02;;;5.45;;
74495;SDS011;62979;55.720;37.606;2023-09-12T11:39:55;10.48;;;6.38;;
74495;SDS011;62979;55.720;37.606;2023-09-12T11:42:24;8.32;;;5.95;;
74495;SDS011;62979;55.720;37.606;2023-09-12T11:44:51;8.23;;;6.60;;
74495;SDS011;62979;55.720;37.606;2023-09-12T11:47:18;8.82;;;6.30;;
74495;SDS011;62979;55.720;37.606;2023-09-12T11:49:49;7.05;;;5.22;;
74495;SDS011;62979;55.720;37.606;2023-09-12T11:52:16;7.78;;;4.70;;
74495;SDS011;62979;55.720;37.606;2023-09-12T11:54:44;9.82;;;6.38;;
74495;SDS011;62979;55.720;37.606;2023-09-12T11:57:13;9.27;;;6.55;;
74495;SDS011;62979;55.720;37.606;2023-09-12T11:59:42;10.38;;;6.28;;
74495;SDS011;62979;55.720;37.606;2023-09-12T12:02:10;8.18;;;5.03;;
74495;SDS011;62979;55.720;37.606;2023-09-12T12:04:38;7.75;;;6.05;;
74495;SDS011;62979;55.720;37.606;2023-09-12T12:07:06;6.88;;;5.07;;
74495;SDS011;62979;55.720;37.606;2023-09-12T12:09:34;9.85;;;4.53;;
74495;SDS011;62979;55.720;37.606;2023-09-12T12:12:04;7.13;;;5.00;;
74495;SDS011;62979;55.720;37.606;2023-09-12T12:14:38;6.85;;;5.80;;
74495;SDS011;62979;55.720;37.606;2023-09-12T12:17:06;6.53;;;5.45;;
74495;SDS011;62979;55.720;37.606;2023-09-12T12:19:35;5.65;;;4.93;;
74495;SDS011;62979;55.720;37.606;2023-09-12T12:22:03;7.97;;;5.28;;
74495;SDS011;62979;55.720;37.606;2023-09-12T12:24:40;9.88;;;5.82;;
74495;SDS011;62979;55.720;37.606;2023-09-12T12:27:14;6.15;;;4.97;;
74495;SDS011;62979;55.720;37.606;2023-09-12T12:29:41;5.57;;;4.60;;
74495;SDS011;62979;55.720;37.606;2023-09-12T12:32:09;4.97;;;4.28;;
74495;SDS011;62979;55.720;37.606;2023-09-12T12:34:37;8.02;;;5.05;;
74495;SDS011;62979;55.720;37.606;2023-09-12T12:37:04;5.90;;;4.32;;
74495;SDS011;62979;55.720;37.606;2023-09-12T12:39:31;5.03;;;4.45;;
74495;SDS011;62979;55.720;37.606;2023-09-12T12:42:00;9.40;;;4.78;;
74495;SDS011;62979;55.720;37.606;2023-09-12T12:44:34;5.80;;;5.03;;
74495;SDS011;62979;55.720;37.606;2023-09-12T12:47:05;9.43;;;6.28;;
74495;SDS011;62979;55.720;37.606;2023-09-12T12:49:35;10.52;;;8.15;;
74495;SDS011;62979;55.720;37.606;2023-09-12T12:52:04;12.43;;;7.88;;
74495;SDS011;62979;55.720;37.606;2023-09-12T12:54:32;25.38;;;20.25;;
74495;SDS011;62979;55.720;37.606;2023-09-12T12:57:01;16.23;;;12.10;;
74495;SDS011;62979;55.720;37.606;2023-09-12T12:59:28;20.75;;;17.27;;
74495;SDS011;62979;55.720;37.606;2023-09-12T13:01:59;38.40;;;27.33;;
74495;SDS011;62979;55.720;37.606;2023-09-12T13:04:27;9.32;;;7.53;;
74495;SDS011;62979;55.720;37.606;2023-09-12T13:06:54;18.30;;;12.88;;
74495;SDS011;62979;55.720;37.606;2023-09-12T13:09:22;35.40;;;28.77;;
74495;SDS011;62979;55.720;37.606;2023-09-12T13:11:49;18.95;;;13.82;;
74495;SDS011;62979;55.720;37.606;2023-09-12T13:14:17;12.85;;;9.63;;
74495;SDS011;62979;55.720;37.606;2023-09-12T13:16:44;27.65;;;20.58;;
74495;SDS011;62979;55.720;37.606;2023-09-12T13:19:11;7.85;;;6.57;;
74495;SDS011;62979;55.720;37.606;2023-09-12T13:21:38;8.38;;;6.40;;
74495;SDS011;62979;55.720;37.606;2023-09-12T13:24:06;27.58;;;22.98;;
74495;SDS011;62979;55.720;37.606;2023-09-12T13:26:33;17.63;;;13.50;;
74495;SDS011;62979;55.720;37.606;2023-09-12T13:31:28;13.85;;;11.68;;
74495;SDS011;62979;55.720;37.606;2023-09-12T13:33:55;7.80;;;5.95;;
74495;SDS011;62979;55.720;37.606;2023-09-12T13:36:22;10.73;;;7.97;;
74495;SDS011;62979;55.720;37.606;2023-09-12T13:38:49;10.55;;;9.00;;
74495;SDS011;62979;55.720;37.606;2023-09-12T13:41:16;8.85;;;7.95;;
74495;SDS011;62979;55.720;37.606;2023-09-12T13:43:44;7.68;;;6.20;;
74495;SDS011;62979;55.720;37.606;2023-09-12T13:46:11;7.00;;;6.10;;
74495;SDS011;62979;55.720;37.606;2023-09-12T13:48:40;7.13;;;5.35;;
74495;SDS011;62979;55.720;37.606;2023-09-12T13:51:07;7.32;;;4.82;;
74495;SDS011;62979;55.720;37.606;2023-09-12T13:56:00;5.32;;;4.82;;
74495;SDS011;62979;55.720;37.606;2023-09-12T14:00:54;7.22;;;5.70;;
74495;SDS011;62979;55.720;37.606;2023-09-12T14:05:49;7.97;;;5.85;;
74495;SDS011;62979;55.720;37.606;2023-09-12T14:08:16;5.35;;;4.72;;
74495;SDS011;62979;55.720;37.606;2023-09-12T14:10:43;6.30;;;5.53;;
74495;SDS011;62979;55.720;37.606;2023-09-12T14:13:10;4.97;;;4.47;;
74495;SDS011;62979;55.720;37.606;2023-09-12T14:18:03;5.75;;;4.97;;
74495;SDS011;62979;55.720;37.606;2023-09-12T14:20:30;6.75;;;5.43;;
74495;SDS011;62979;55.720;37.606;2023-09-12T14:22:59;6.03;;;4.60;;
74495;SDS011;62979;55.720;37.606;2023-09-12T14:25:26;5.45;;;4.57;;
74495;SDS011;62979;55.720;37.606;2023-09-12T14:30:20;8.55;;;5.63;;
74495;SDS011;62979;55.720;37.606;2023-09-12T14:32:47;7.22;;;4.65;;
74495;SDS011;62979;55.720;37.606;2023-09-12T14:37:41;7.53;;;5.70;;
74495;SDS011;62979;55.720;37.606;2023-09-12T14:42:40;5.38;;;4.65;;
74495;SDS011;62979;55.720;37.606;2023-09-12T14:45:07;6.25;;;4.80;;
74495;SDS011;62979;55.720;37.606;2023-09-12T14:47:36;6.18;;;4.93;;
74495;SDS011;62979;55.720;37.606;2023-09-12T14:50:03;7.00;;;6.13;;
74495;SDS011;62979;55.720;37.606;2023-09-12T14:52:31;7.50;;;5.70;;
74495;SDS011;62979;55.720;37.606;2023-09-12T14:54:59;7.63;;;4.80;;
74495;SDS011;62979;55.720;37.606;2023-09-12T14:57:29;5.57;;;4.97;;
74495;SDS011;62979;55.720;37.606;2023-09-12T14:59:56;6.97;;;4.82;;
74495;SDS011;62979;55.720;37.606;2023-09-12T15:02:24;8.50;;;5.10;;
74495;SDS011;62979;55.720;37.606;2023-09-12T15:04:56;5.85;;;4.93;;
74495;SDS011;62979;55.720;37.606;2023-09-12T15:07:23;7.30;;;4.75;;
74495;SDS011;62979;55.720;37.606;2023-09-12T15:09:50;8.10;;;5.25;;